Estación Meteorológica Peña el Pijo (Robertgarden) [ 10/16/18 03:34:04 CEST ]

Fecha Hora Presion(HPa) Temp (°C) Humedad % Rocio (°C) Viento ( m/s) Direccion Lluvia 1Hora(mm) Lluvia 24H(mm) LLuvia Total(mm)
2018-Aug-16 01:02:00 1012.400 15.9 79 12.3       1.55 289.04
2018-Aug-16 02:01:49 1012.200 15.3 81 12.1       1.55 289.04
2018-Aug-16 03:01:20 1012.000 14.3 83 11.4       1.55 8904.04
2018-Aug-16 04:01:24 1011.500 13.6 84 10.9       1.55 289.04
2018-Aug-16 05:01:22 1011.200 14.1 85 11.6       1.55 289.04
2018-Aug-16 06:01:23 1011.000 13.6 85 11.1       1.55 289.04
2018-Aug-16 07:01:49 1011.300 13.3 86 11.0       1.55 289.04
2018-Aug-16 08:01:52 1011.200 12.9 86 10.6       1.55 289.04
2018-Aug-16 09:01:33 1011.200 16.9 85 14.3       1.55 289.04
2018-Aug-16 10:01:45 1011.300 22.4 69 16.4       1.55 289.04
2018-Aug-16 11:01:40 1011.600 27.6 48 15.6       1.55 289.04
2018-Aug-16 12:01:42 1011.800 29.4 40 14.5       1.55 289.04
2018-Aug-16 13:01:43 1011.200 28.9 41 14.3 - N   1.55 289.04
2018-Aug-16 14:01:38 1012.000 23.4 50 12.4       1.55 289.04
2018-Aug-16 15:01:50 1012.000 17.8 66 11.3       1.55 289.04
2018-Aug-16 16:01:33 1009.900 19.2 71 13.8       1.55 289.04
2018-Aug-16 17:01:31 1010.300 21.4 63 14.1       1.55 289.04
2018-Aug-16 18:01:30 1010.400 25.0 50 13.9       0.51 289.04
2018-Aug-16 19:01:47 1009.500 24.5 49 13.1       0.51 289.04
2018-Aug-16 20:01:45 1009.400 23.6 51 12.9       0.51 289.04
2018-Aug-16 21:01:38 1009.900 21.2 56 12.1         289.04
2018-Aug-16 22:01:37 1010.500 20.5 57 11.7         289.04
2018-Aug-16 23:01:35 1011.100 19.2 61 11.5 0.8 NNW     289.04

Temperatura Máxima:29°    Temperatura Mínima:12°
Presión Máxima:1012.400 Hpa    Presión Mínima:1009.400 Hpa


Volver